Time;durP1;ratioP1;P1;durP2;ratioP2;P2;SDS_P1;SDS_P2;PMS_P1;PMS_P2;Temp;Humidity;BMP_temperature;BMP_pressure;BME280_temperature;BME280_humidity;BME280_pressure;Samples;Min_cycle;Max_cycle;Signal;HPM_P1;HPM_P2
2021/06/29 00:00:28;;;;;;;3.30;2.80;;;18.50;95.40;;;;;;5085063;28;20227;-92
2021/06/29 00:05:41;;;;;;;4.78;2.78;;;18.40;95.90;;;;;;5087244;28;20262;-92
2021/06/29 00:08:09;;;;;;;4.00;3.10;;;18.40;95.80;;;;;;5095259;28;20197;-92
2021/06/29 00:10:37;;;;;;;3.75;2.88;;;18.40;96.00;;;;;;5069460;28;21713;-92
2021/06/29 00:13:05;;;;;;;4.80;3.05;;;18.40;95.90;;;;;;5093865;28;20196;-92
2021/06/29 00:15:32;;;;;;;4.30;3.03;;;18.40;96.00;;;;;;5093193;28;20228;-92
2021/06/29 00:20:42;;;;;;;5.18;2.90;;;18.40;96.10;;;;;;5061419;28;20232;-92
2021/06/29 00:23:09;;;;;;;3.53;2.70;;;18.60;96.00;;;;;;5077545;28;20200;-92
2021/06/29 00:25:37;;;;;;;3.00;2.70;;;18.60;95.80;;;;;;5081991;28;20232;-92
2021/06/29 00:28:04;;;;;;;4.40;3.05;;;18.60;95.70;;;;;;5077757;28;20212;-92
2021/06/29 00:30:31;;;;;;;3.17;2.50;;;18.50;95.60;;;;;;5092799;28;20592;-91
2021/06/29 00:33:05;;;;;;;3.10;2.78;;;18.60;95.90;;;;;;5081746;28;20208;-91
2021/06/29 00:35:32;;;;;;;4.03;2.72;;;18.60;95.30;;;;;;5072726;28;20224;-91
2021/06/29 00:37:59;;;;;;;3.08;2.78;;;18.70;95.00;;;;;;5060502;28;20201;-92
2021/06/29 00:40:26;;;;;;;2.90;2.70;;;18.80;94.90;;;;;;5075685;28;20566;-92
2021/06/29 00:42:53;;;;;;;3.13;2.85;;;18.80;94.50;;;;;;5083074;28;20292;-92
2021/06/29 00:45:20;;;;;;;4.32;2.85;;;18.80;94.40;;;;;;5087804;28;20228;-91
2021/06/29 00:47:48;;;;;;;3.92;2.70;;;18.70;94.20;;;;;;5090354;28;20206;-90
2021/06/29 00:50:16;;;;;;;3.50;2.83;;;18.70;94.30;;;;;;5100649;28;20258;-90
2021/06/29 00:52:43;;;;;;;2.95;2.55;;;18.70;94.20;;;;;;5089546;28;20192;-90
2021/06/29 00:55:13;;;;;;;2.78;2.58;;;18.60;94.60;;;;;;5073076;28;20220;-90
2021/06/29 00:57:41;;;;;;;4.07;2.80;;;18.60;94.70;;;;;;5086603;28;20258;-90
2021/06/29 01:00:11;;;;;;;3.15;2.47;;;18.60;95.10;;;;;;5072055;28;20217;-91
2021/06/29 01:02:38;;;;;;;4.72;2.63;;;18.60;95.10;;;;;;5077878;28;20621;-90
2021/06/29 01:05:07;;;;;;;2.75;2.55;;;18.60;95.00;;;;;;5086997;28;20224;-90
2021/06/29 01:07:36;;;;;;;3.13;2.80;;;18.60;94.80;;;;;;5078802;28;20201;-90
2021/06/29 01:10:05;;;;;;;3.33;2.58;;;18.70;94.90;;;;;;5080299;28;20300;-90
2021/06/29 01:12:33;;;;;;;3.97;2.70;;;18.60;94.80;;;;;;5072428;28;20269;-90
2021/06/29 01:15:00;;;;;;;2.72;2.53;;;18.60;95.10;;;;;;5070078;28;20229;-91
2021/06/29 01:17:28;;;;;;;4.95;3.00;;;18.70;95.10;;;;;;5076387;28;20258;-90
2021/06/29 01:19:55;;;;;;;3.60;2.53;;;18.60;94.90;;;;;;5086663;28;20228;-90
2021/06/29 01:22:26;;;;;;;4.07;2.92;;;18.60;94.80;;;;;;5079871;28;21050;-90
2021/06/29 01:24:55;;;;;;;3.28;2.97;;;18.50;95.10;;;;;;5100529;28;20224;-90
2021/06/29 01:32:50;;;;;;;3.08;2.83;;;18.60;95.20;;;;;;5078028;28;20220;-90
2021/06/29 01:35:17;;;;;;;4.43;3.08;;;18.50;95.20;;;;;;5080729;28;20224;-90
2021/06/29 01:37:46;;;;;;;2.85;2.65;;;18.50;95.20;;;;;;5085096;28;20657;-90
2021/06/29 01:40:17;;;;;;;3.15;2.47;;;18.50;95.30;;;;;;5090633;28;20266;-90
2021/06/29 01:42:44;;;;;;;3.00;2.70;;;18.50;95.20;;;;;;5077945;28;20560;-90
2021/06/29 01:45:11;;;;;;;2.60;2.40;;;18.60;95.10;;;;;;5092520;28;20234;-90
2021/06/29 01:47:53;;;;;;;6.18;3.20;;;18.60;95.00;;;;;;5083262;28;20197;-91
2021/06/29 01:50:21;;;;;;;3.40;3.17;;;18.60;94.80;;;;;;5089159;28;20316;-91
2021/06/29 01:52:58;;;;;;;2.97;2.78;;;18.70;95.20;;;;;;5088649;28;20201;-90
2021/06/29 01:55:26;;;;;;;3.60;3.03;;;18.70;95.10;;;;;;5089604;28;20266;-90
2021/06/29 01:57:54;;;;;;;3.22;2.80;;;18.80;94.70;;;;;;5084329;28;20201;-91
2021/06/29 02:00:21;;;;;;;3.70;2.88;;;18.80;94.60;;;;;;5088466;28;20417;-90
2021/06/29 02:02:48;;;;;;;3.65;3.30;;;18.80;94.80;;;;;;5093302;28;20193;-90
2021/06/29 02:05:16;;;;;;;3.55;2.90;;;18.90;94.40;;;;;;5099340;28;20224;-89
2021/06/29 02:07:43;;;;;;;4.50;3.20;;;18.90;94.10;;;;;;5099134;28;20242;-90
2021/06/29 02:10:14;;;;;;;4.13;2.90;;;18.90;94.00;;;;;;5094298;28;20212;-90
2021/06/29 02:12:43;;;;;;;3.10;2.80;;;18.80;94.40;;;;;;5089245;28;20197;-90
2021/06/29 02:15:10;;;;;;;3.17;2.67;;;18.80;94.30;;;;;;5090745;28;20283;-90
2021/06/29 02:17:38;;;;;;;3.25;2.95;;;18.80;94.50;;;;;;5080227;28;20201;-90
2021/06/29 02:20:08;;;;;;;3.47;3.17;;;18.80;94.30;;;;;;5103203;28;20224;-90
2021/06/29 02:22:37;;;;;;;4.70;3.20;;;18.70;94.50;;;;;;5089352;28;20197;-91
2021/06/29 02:25:06;;;;;;;3.70;3.15;;;18.70;94.70;;;;;;5076758;28;20227;-90
2021/06/29 02:27:34;;;;;;;4.10;3.05;;;18.70;94.90;;;;;;5089433;28;20280;-90
2021/06/29 02:30:02;;;;;;;3.90;2.88;;;18.80;94.70;;;;;;5072399;28;20240;-90
2021/06/29 02:32:29;;;;;;;3.35;2.90;;;18.70;94.90;;;;;;5073257;28;20231;-90
2021/06/29 02:34:56;;;;;;;3.45;3.15;;;18.80;94.70;;;;;;5068498;28;20574;-90
2021/06/29 02:37:25;;;;;;;3.10;2.83;;;18.80;94.30;;;;;;5092415;28;20271;-90
2021/06/29 02:39:52;;;;;;;3.58;2.90;;;18.90;94.10;;;;;;5069440;28;20592;-90
2021/06/29 02:42:20;;;;;;;3.40;3.10;;;18.90;93.70;;;;;;5086469;28;20204;-90
2021/06/29 02:44:48;;;;;;;5.63;2.67;;;18.80;93.50;;;;;;5087651;28;20229;-90
2021/06/29 02:47:16;;;;;;;5.03;3.10;;;18.80;93.80;;;;;;5092578;28;20196;-90
2021/06/29 02:49:44;;;;;;;4.53;3.03;;;18.80;94.10;;;;;;5079105;28;20225;-90
2021/06/29 02:52:11;;;;;;;3.03;2.80;;;18.80;94.00;;;;;;5081972;28;20581;-90
2021/06/29 02:54:38;;;;;;;3.13;2.80;;;18.80;94.20;;;;;;5080636;28;20232;-90
2021/06/29 02:57:06;;;;;;;2.92;2.63;;;18.90;94.40;;;;;;5082522;28;20220;-90
2021/06/29 02:59:33;;;;;;;5.18;3.08;;;18.90;93.90;;;;;;5092367;28;20221;-90
2021/06/29 03:02:02;;;;;;;3.58;3.13;;;18.90;93.70;;;;;;5081106;28;20203;-90
2021/06/29 03:04:29;;;;;;;3.17;2.80;;;18.90;93.60;;;;;;5072029;28;20229;-90
2021/06/29 03:06:56;;;;;;;3.88;3.17;;;18.80;93.20;;;;;;5078229;28;20216;-90
2021/06/29 03:09:23;;;;;;;3.15;2.85;;;18.80;93.90;;;;;;5088454;28;20231;-90
2021/06/29 03:11:50;;;;;;;3.90;2.90;;;18.60;94.30;;;;;;5069218;28;20709;-90
2021/06/29 03:14:17;;;;;;;3.45;3.15;;;18.70;94.10;;;;;;5082049;28;20228;-90
2021/06/29 03:16:44;;;;;;;5.85;3.00;;;18.60;94.40;;;;;;5090536;28;20569;-90
2021/06/29 03:19:12;;;;;;;4.63;3.15;;;18.70;94.10;;;;;;5088849;28;20232;-90
2021/06/29 03:21:39;;;;;;;3.17;2.88;;;18.70;94.10;;;;;;5079660;28;20200;-90
2021/06/29 03:24:07;;;;;;;3.65;3.25;;;18.70;94.10;;;;;;5094593;28;20319;-90
2021/06/29 03:26:34;;;;;;;3.30;3.00;;;18.70;93.90;;;;;;5089988;28;20196;-91
2021/06/29 03:29:01;;;;;;;3.25;2.95;;;18.70;94.20;;;;;;5071790;28;20188;-91
2021/06/29 03:31:28;;;;;;;3.33;3.00;;;18.70;94.10;;;;;;5095278;28;20228;-90
2021/06/29 03:33:55;;;;;;;3.67;3.17;;;18.60;94.00;;;;;;5082460;28;20222;-90
2021/06/29 03:36:24;;;;;;;4.25;3.25;;;18.50;94.00;;;;;;5076478;28;20201;-90
2021/06/29 03:38:52;;;;;;;3.10;2.80;;;18.70;93.60;;;;;;5093530;28;20230;-90
2021/06/29 03:41:20;;;;;;;5.75;3.10;;;18.60;93.50;;;;;;5075482;28;20211;-90
2021/06/29 03:43:47;;;;;;;4.88;3.00;;;18.60;93.80;;;;;;5094972;28;20660;-90
2021/06/29 03:46:14;;;;;;;3.45;3.15;;;18.70;93.70;;;;;;5087041;28;20197;-90
2021/06/29 03:48:41;;;;;;;7.65;3.35;;;18.60;93.70;;;;;;5090516;28;20196;-90
2021/06/29 03:51:08;;;;;;;3.45;3.05;;;18.60;93.90;;;;;;5077694;28;20223;-90
2021/06/29 03:53:36;;;;;;;3.10;2.90;;;18.60;94.10;;;;;;5082378;28;20231;-90
2021/06/29 03:56:03;;;;;;;3.17;2.88;;;18.70;93.90;;;;;;5088522;28;20590;-90
2021/06/29 03:58:31;;;;;;;3.65;2.58;;;18.60;94.10;;;;;;5095514;28;20196;-90
2021/06/29 04:00:58;;;;;;;3.67;2.90;;;18.60;93.70;;;;;;5077224;28;20235;-90
2021/06/29 04:03:25;;;;;;;2.88;2.67;;;18.70;93.80;;;;;;5072773;28;20397;-90
2021/06/29 04:05:52;;;;;;;4.15;3.10;;;18.70;93.80;;;;;;5081078;28;20294;-90
2021/06/29 04:08:19;;;;;;;3.55;2.97;;;18.60;93.80;;;;;;5087873;28;20202;-90
2021/06/29 04:13:28;;;;;;;3.40;2.92;;;18.70;93.60;;;;;;5092679;28;20242;-90
2021/06/29 04:15:55;;;;;;;4.50;3.20;;;18.50;93.90;;;;;;5075780;28;20216;-91
2021/06/29 04:18:22;;;;;;;6.75;2.95;;;18.50;93.90;;;;;;5094340;28;20201;-90
2021/06/29 04:20:49;;;;;;;4.47;2.90;;;18.50;93.90;;;;;;5079928;28;20228;-90
2021/06/29 04:23:16;;;;;;;3.38;3.08;;;18.30;94.30;;;;;;5086433;28;20559;-90
2021/06/29 04:25:44;;;;;;;3.40;3.10;;;18.20;94.70;;;;;;5089454;28;20225;-91
2021/06/29 04:28:12;;;;;;;3.97;3.00;;;18.30;94.80;;;;;;5076188;28;20222;-90
2021/06/29 04:30:39;;;;;;;3.13;2.80;;;18.30;94.90;;;;;;5093865;28;20252;-90
2021/06/29 04:33:07;;;;;;;4.05;2.80;;;18.30;94.30;;;;;;5087948;28;20216;-90
2021/06/29 04:35:34;;;;;;;3.08;2.75;;;18.30;94.40;;;;;;5080946;28;20749;-90
2021/06/29 04:38:01;;;;;;;3.00;2.80;;;18.30;94.40;;;;;;5095612;28;20204;-90
2021/06/29 04:40:30;;;;;;;4.38;3.15;;;18.30;94.50;;;;;;5089708;28;20856;-91
2021/06/29 04:42:57;;;;;;;3.08;2.80;;;18.30;94.40;;;;;;5089194;28;20200;-90
2021/06/29 04:45:27;;;;;;;3.08;2.83;;;18.30;94.10;;;;;;5093404;28;20228;-90
2021/06/29 04:47:55;;;;;;;5.07;3.10;;;18.40;93.50;;;;;;5079925;28;20262;-87
2021/06/29 04:50:24;;;;;;;3.55;2.88;;;18.50;93.30;;;;;;5086129;28;20268;-91
2021/06/29 04:52:52;;;;;;;4.13;2.80;;;18.60;93.20;;;;;;5090681;28;20212;-91
2021/06/29 04:55:20;;;;;;;4.30;3.03;;;18.70;92.30;;;;;;5080490;28;20225;-90
2021/06/29 04:57:47;;;;;;;3.75;2.60;;;18.70;92.30;;;;;;5088726;28;20224;-90
2021/06/29 05:00:18;;;;;;;2.90;2.70;;;18.60;92.30;;;;;;5073523;28;20225;-90
2021/06/29 05:02:46;;;;;;;2.70;2.50;;;18.60;92.70;;;;;;5093996;28;20246;-90
2021/06/29 05:05:13;;;;;;;2.78;2.47;;;18.70;92.90;;;;;;5079154;28;20242;-90
2021/06/29 05:07:41;;;;;;;2.50;2.30;;;18.80;92.80;;;;;;5087408;28;20288;-90
2021/06/29 05:10:10;;;;;;;2.25;2.10;;;18.90;92.40;;;;;;5089483;28;20223;-91
2021/06/29 05:12:38;;;;;;;2.83;2.60;;;19.00;92.20;;;;;;5085088;28;20841;-90
2021/06/29 05:15:07;;;;;;;3.13;2.42;;;19.20;91.00;;;;;;5086496;28;20357;-91
2021/06/29 05:17:36;;;;;;;3.15;2.13;;;19.30;90.60;;;;;;5094466;28;20585;-90
2021/06/29 05:20:06;;;;;;;3.58;2.45;;;19.40;90.30;;;;;;5096729;28;20216;-90
2021/06/29 05:22:33;;;;;;;4.45;2.35;;;19.40;90.20;;;;;;5086813;28;20203;-90
2021/06/29 05:25:02;;;;;;;2.78;2.50;;;19.40;90.40;;;;;;5088141;28;20227;-93
2021/06/29 05:27:41;;;;;;;3.38;2.50;;;19.20;90.90;;;;;;5085106;28;20325;-92
2021/06/29 05:32:50;;;;;;;2.50;2.30;;;19.00;91.30;;;;;;5080965;28;20251;-91
2021/06/29 05:39:00;;;;;;;2.63;2.42;;;19.20;90.90;;;;;;5022611;28;20205;-93
2021/06/29 05:41:27;;;;;;;4.00;2.30;;;19.20;91.20;;;;;;5036051;28;20204;-93
2021/06/29 05:43:53;;;;;;;3.50;2.80;;;19.20;90.90;;;;;;5091756;28;20211;-92
2021/06/29 05:46:20;;;;;;;2.22;2.13;;;19.20;90.70;;;;;;5099276;28;20690;-93
2021/06/29 05:49:36;;;;;;;3.17;2.42;;;19.10;91.20;;;;;;5097531;28;20192;-92
2021/06/29 05:52:05;;;;;;;3.20;2.53;;;19.00;91.40;;;;;;5084374;28;20244;-93
2021/06/29 05:57:08;;;;;;;3.65;2.60;;;18.80;92.30;;;;;;5348797;22;20237;-93
2021/06/29 05:59:41;;;;;;;2.95;2.50;;;18.70;92.30;;;;;;5070499;28;20231;-92
2021/06/29 06:02:08;;;;;;;3.10;2.55;;;18.60;93.00;;;;;;5065199;28;20656;-92
2021/06/29 06:04:36;;;;;;;3.72;2.60;;;18.50;93.50;;;;;;5071799;28;20228;-93
2021/06/29 06:07:03;;;;;;;5.50;2.70;;;18.40;94.10;;;;;;5089716;28;20196;-92
2021/06/29 06:09:31;;;;;;;3.15;2.60;;;18.20;95.00;;;;;;5077041;28;20224;-92
2021/06/29 06:11:58;;;;;;;3.88;2.65;;;18.10;95.50;;;;;;5062663;28;20683;-92
2021/06/29 06:14:25;;;;;;;2.90;2.70;;;18.00;96.00;;;;;;5078459;28;20225;-92
2021/06/29 06:16:52;;;;;;;3.08;2.80;;;18.00;96.40;;;;;;5075933;28;20202;-92
2021/06/29 06:19:18;;;;;;;3.33;3.03;;;18.00;96.70;;;;;;5075335;28;20235;-92
2021/06/29 06:21:46;;;;;;;4.70;2.60;;;17.90;97.10;;;;;;5072659;28;20228;-93
2021/06/29 06:24:13;;;;;;;3.35;2.67;;;17.90;97.60;;;;;;5073739;28;20311;-92
2021/06/29 06:26:42;;;;;;;3.00;2.70;;;17.90;97.00;;;;;;5076930;28;20209;-93
2021/06/29 06:29:10;;;;;;;2.92;2.72;;;17.90;97.20;;;;;;5067450;28;20689;-91
2021/06/29 06:31:37;;;;;;;4.15;2.88;;;17.80;97.20;;;;;;5071802;28;20212;-92
2021/06/29 06:34:03;;;;;;;3.63;3.33;;;17.90;97.60;;;;;;5080904;28;20208;-93
2021/06/29 06:36:30;;;;;;;3.95;2.50;;;17.80;97.60;;;;;;5082279;28;20207;-92
2021/06/29 06:38:57;;;;;;;3.35;3.00;;;17.90;97.90;;;;;;5074954;28;20292;-92
2021/06/29 06:41:24;;;;;;;3.20;2.90;;;17.90;98.30;;;;;;5072977;28;20193;-93
2021/06/29 06:46:33;;;;;;;3.65;2.88;;;18.10;97.60;;;;;;5065830;28;20263;-92
2021/06/29 06:49:00;;;;;;;3.53;2.92;;;18.20;96.40;;;;;;5081153;28;20289;-92
2021/06/29 06:51:27;;;;;;;2.70;2.50;;;18.40;96.70;;;;;;5073995;28;20205;-91
2021/06/29 06:53:56;;;;;;;6.03;3.10;;;18.60;96.10;;;;;;5069172;28;20226;-93
2021/06/29 06:56:22;;;;;;;3.55;2.80;;;18.90;94.80;;;;;;5058736;28;20205;-92
2021/06/29 07:06:56;;;;;;;4.78;2.40;;;19.00;94.70;;;;;;4993328;28;20239;-93
2021/06/29 07:09:23;;;;;;;3.40;2.45;;;19.20;94.40;;;;;;5058659;28;20229;-93
2021/06/29 07:20:40;;;;;;;3.67;2.00;;;21.50;85.00;;;;;;5049868;28;20309;-94
2021/06/29 07:23:25;;;;;;;2.60;1.98;;;22.60;76.30;;;;;;5052376;28;20210;-91
2021/06/29 07:25:52;;;;;;;2.15;1.95;;;24.10;65.10;;;;;;5062428;28;20222;-91
2021/06/29 07:28:19;;;;;;;2.38;2.00;;;24.30;58.80;;;;;;5057696;28;20649;-91
2021/06/29 07:30:48;;;;;;;2.30;2.00;;;23.90;59.60;;;;;;5061794;28;20261;-91
2021/06/29 07:33:15;;;;;;;2.70;2.10;;;23.30;63.10;;;;;;5072900;28;20668;-91
2021/06/29 07:35:43;;;;;;;3.45;2.13;;;22.90;67.50;;;;;;5048845;28;20228;-91
2021/06/29 07:38:10;;;;;;;2.22;1.90;;;22.50;69.00;;;;;;5062833;28;20195;-90
2021/06/29 07:40:37;;;;;;;2.00;1.70;;;22.20;72.30;;;;;;5060503;28;20234;-91
2021/06/29 07:43:05;;;;;;;2.45;1.73;;;21.80;72.00;;;;;;5048570;28;20202;-91
2021/06/29 07:45:33;;;;;;;2.05;1.85;;;21.50;75.90;;;;;;5055543;28;20244;-90
2021/06/29 07:48:02;;;;;;;1.73;1.63;;;21.30;76.80;;;;;;5063093;28;20209;-90
2021/06/29 07:50:29;;;;;;;1.80;1.70;;;21.20;76.10;;;;;;5053462;28;20254;-90
2021/06/29 07:53:08;;;;;;;3.90;2.00;;;21.30;78.30;;;;;;5068972;28;20221;-93
2021/06/29 07:55:54;;;;;;;1.90;1.70;;;21.20;76.40;;;;;;5065522;28;20225;-93
2021/06/29 07:58:21;;;;;;;1.77;1.67;;;21.10;66.70;;;;;;5053381;28;20210;-91
2021/06/29 08:03:55;;;;;;;2.08;1.88;;;21.50;71.70;;;;;;5002384;28;20247;-94
2021/06/29 08:06:24;;;;;;;3.25;1.70;;;21.70;72.30;;;;;;5057270;28;20202;-93
2021/06/29 08:08:52;;;;;;;5.22;3.83;;;22.10;68.70;;;;;;5057766;28;20205;-93
2021/06/29 08:11:19;;;;;;;3.47;2.00;;;22.40;66.40;;;;;;5060360;28;20592;-93
2021/06/29 08:13:46;;;;;;;2.10;1.90;;;22.20;62.20;;;;;;5057623;28;20210;-95
2021/06/29 08:16:16;;;;;;;11.07;9.98;;;22.60;59.80;;;;;;5054553;28;20217;-93
2021/06/29 08:18:43;;;;;;;4.35;2.30;;;23.30;58.90;;;;;;5055781;28;20198;-91
2021/06/29 08:21:11;;;;;;;4.03;3.50;;;24.70;53.20;;;;;;5058029;28;20225;-89
2021/06/29 08:23:40;;;;;;;3.58;2.00;;;26.50;47.50;;;;;;5053269;28;20197;-90
2021/06/29 08:26:09;;;;;;;2.38;1.98;;;29.10;38.90;;;;;;5053028;28;20220;-92
2021/06/29 08:28:36;;;;;;;2.55;2.00;;;29.90;28.50;;;;;;5051312;28;20196;-91
2021/06/29 08:31:03;;;;;;;2.85;2.00;;;29.80;27.80;;;;;;5043242;28;20221;-90
2021/06/29 08:33:35;;;;;;;3.58;1.98;;;30.80;27.10;;;;;;5050962;28;20228;-91
2021/06/29 08:36:03;;;;;;;4.13;2.00;;;32.40;24.20;;;;;;5050766;28;20225;-91
2021/06/29 08:38:31;;;;;;;2.42;2.08;;;31.80;23.80;;;;;;5050644;28;20633;-89
2021/06/29 08:40:57;;;;;;;3.15;2.30;;;32.90;22.20;;;;;;5049309;28;20225;-92
2021/06/29 08:43:26;;;;;;;5.78;2.33;;;33.80;21.50;;;;;;5053922;28;20197;-93
2021/06/29 08:45:55;;;;;;;2.45;2.28;;;35.30;19.20;;;;;;5054076;28;20233;-92
2021/06/29 08:48:22;;;;;;;2.50;2.30;;;35.70;17.60;;;;;;5055932;28;20242;-89
2021/06/29 08:50:49;;;;;;;3.10;2.60;;;36.40;15.80;;;;;;5052014;28;20229;-89
2021/06/29 08:53:16;;;;;;;2.95;2.72;;;37.40;14.40;;;;;;5055996;28;20225;-89
2021/06/29 08:55:48;;;;;;;4.70;3.28;;;34.80;17.30;;;;;;5058212;28;20225;-90
2021/06/29 08:58:16;;;;;;;2.13;2.03;;;33.80;18.50;;;;;;5044531;28;20201;-90
2021/06/29 09:00:45;;;;;;;18.90;17.33;;;34.40;18.80;;;;;;5055517;28;20268;-90
2021/06/29 09:03:12;;;;;;;3.25;2.20;;;35.40;16.20;;;;;;5056683;28;20193;-88
2021/06/29 09:05:45;;;;;;;2.78;2.58;;;36.40;14.40;;;;;;5064812;28;20657;-91
2021/06/29 09:08:14;;;;;;;5.00;2.67;;;37.10;13.50;;;;;;5054527;28;20201;-89
2021/06/29 09:10:43;;;;;;;2.80;2.60;;;37.50;13.60;;;;;;5051634;28;20221;-90
2021/06/29 09:13:11;;;;;;;2.83;2.53;;;37.10;13.30;;;;;;5056175;28;20231;-90
2021/06/29 09:15:42;;;;;;;2.78;2.28;;;35.60;13.40;;;;;;5058796;28;20221;-89
2021/06/29 09:18:14;;;;;;;4.60;4.20;;;32.40;17.80;;;;;;5057011;28;20243;-88
2021/06/29 09:20:43;;;;;;;2.50;2.30;;;34.00;16.40;;;;;;5061135;28;20284;-89
2021/06/29 09:23:12;;;;;;;2.35;2.15;;;35.40;14.20;;;;;;5064213;28;20283;-89
2021/06/29 09:25:40;;;;;;;3.17;2.15;;;33.40;16.50;;;;;;5053766;28;20221;-89
2021/06/29 09:28:17;;;;;;;2.40;2.20;;;33.40;18.30;;;;;;5059429;28;20568;-89
2021/06/29 09:30:47;;;;;;;4.28;2.40;;;35.10;16.70;;;;;;5059115;28;20221;-90
2021/06/29 09:33:19;;;;;;;2.58;2.38;;;35.60;14.20;;;;;;5073415;28;20607;-89
2021/06/29 09:35:50;;;;;;;2.58;2.40;;;36.40;12.90;;;;;;5046543;28;20229;-90
2021/06/29 09:38:21;;;;;;;3.08;2.33;;;36.50;12.60;;;;;;5054494;28;20291;-89
2021/06/29 09:40:54;;;;;;;2.70;2.50;;;35.50;15.00;;;;;;5057377;28;20239;-90
2021/06/29 09:43:23;;;;;;;3.10;2.80;;;35.50;14.50;;;;;;5057788;28;20211;-90
2021/06/29 09:45:52;;;;;;;2.90;2.70;;;35.60;13.30;;;;;;5060301;28;20225;-88
2021/06/29 09:48:33;;;;;;;5.53;3.65;;;37.10;14.60;;;;;;5057511;28;20202;-89
2021/06/29 09:51:05;;;;;;;3.22;3.03;;;37.30;12.90;;;;;;5055553;28;20229;-88
2021/06/29 09:53:36;;;;;;;3.28;3.08;;;37.60;13.10;;;;;;5054475;28;20248;-90
2021/06/29 09:56:06;;;;;;;4.07;3.20;;;38.10;12.10;;;;;;5061272;28;20228;-91
2021/06/29 09:58:34;;;;;;;3.20;3.00;;;37.80;10.90;;;;;;5058860;28;20249;-90
2021/06/29 10:01:02;;;;;;;2.78;2.58;;;37.30;12.30;;;;;;5061766;28;20260;-90
2021/06/29 10:06:15;;;;;;;3.50;3.20;;;36.40;14.40;;;;;;5045857;28;20403;-90
2021/06/29 10:08:43;;;;;;;3.08;2.88;;;37.30;11.70;;;;;;5054826;28;20194;-90
2021/06/29 10:11:31;;;;;;;3.15;2.90;;;35.70;14.00;;;;;;5058629;28;20707;-90
2021/06/29 10:16:44;;;;;;;3.22;3.03;;;35.90;14.00;;;;;;5059753;28;20197;-90
2021/06/29 10:19:26;;;;;;;3.60;3.30;;;36.70;12.70;;;;;;5052303;28;20224;-90
2021/06/29 10:21:55;;;;;;;2.90;2.63;;;36.30;13.50;;;;;;5061203;28;20196;-90
2021/06/29 10:24:26;;;;;;;4.10;2.80;;;36.90;13.40;;;;;;5054286;28;20221;-91
2021/06/29 10:26:56;;;;;;;2.80;2.70;;;36.90;11.90;;;;;;5061814;28;20205;-91
2021/06/29 10:29:43;;;;;;;2.65;2.53;;;36.30;13.50;;;;;;5057956;28;20264;-90
2021/06/29 10:32:13;;;;;;;2.45;2.30;;;35.20;15.80;;;;;;5051271;28;20209;-92
2021/06/29 10:34:47;;;;;;;2.45;2.15;;;34.00;16.50;;;;;;5059362;28;20228;-91
2021/06/29 10:37:20;;;;;;;2.13;2.03;;;31.70;19.80;;;;;;5057886;28;20654;-92
2021/06/29 10:39:47;;;;;;;2.35;2.15;;;32.50;20.80;;;;;;5057005;28;20224;-90
2021/06/29 10:42:18;;;;;;;2.70;2.50;;;33.30;19.70;;;;;;5058268;28;20193;-90
2021/06/29 10:44:47;;;;;;;2.28;2.17;;;34.40;18.80;;;;;;5066021;28;20236;-91
2021/06/29 10:47:23;;;;;;;1.90;1.80;;;34.70;15.90;;;;;;5058981;28;20200;-90
2021/06/29 10:49:52;;;;;;;2.22;2.10;;;34.10;17.10;;;;;;5054661;28;20229;-89
2021/06/29 10:52:47;;;;;;;2.40;2.20;;;34.20;18.20;;;;;;5056587;28;20209;-91
2021/06/29 10:55:26;;;;;;;3.08;2.63;;;34.10;18.80;;;;;;5052727;28;20237;-91
2021/06/29 10:58:09;;;;;;;2.15;2.05;;;31.80;20.50;;;;;;5054604;28;20197;-91
2021/06/29 11:00:36;;;;;;;2.45;2.35;;;32.10;22.30;;;;;;5054787;28;20675;-91
2021/06/29 11:03:05;;;;;;;2.33;2.13;;;32.60;21.30;;;;;;5055361;28;20196;-91
2021/06/29 11:05:41;;;;;;;3.75;2.20;;;32.70;20.00;;;;;;5065611;28;20313;-90
2021/06/29 11:08:10;;;;;;;2.58;2.25;;;31.50;20.70;;;;;;5046519;28;20260;-88
2021/06/29 11:10:39;;;;;;;3.05;2.10;;;31.40;21.60;;;;;;5063566;28;20228;-90
2021/06/29 11:13:07;;;;;;;2.20;2.00;;;30.40;25.00;;;;;;5065359;28;20212;-90
2021/06/29 11:15:56;;;;;;;2.08;1.90;;;29.50;27.30;;;;;;5059128;28;20233;-90
2021/06/29 11:18:50;;;;;;;1.90;1.80;;;28.80;28.30;;;;;;5049705;28;20201;-90
2021/06/29 11:21:37;;;;;;;2.38;1.80;;;27.90;30.80;;;;;;5061905;28;20296;-90
2021/06/29 11:24:46;;;;;;;2.42;2.20;;;28.30;32.20;;;;;;5064339;28;20194;-90
2021/06/29 11:27:13;;;;;;;2.67;2.03;;;28.10;31.00;;;;;;5010062;28;20891;-91
2021/06/29 11:29:42;;;;;;;2.72;2.00;;;28.10;30.50;;;;;;5050260;28;20236;-89
2021/06/29 11:32:29;;;;;;;2.65;1.85;;;28.30;32.40;;;;;;5044061;28;20209;-89
2021/06/29 11:34:56;;;;;;;1.85;1.75;;;28.30;32.60;;;;;;5048139;28;20240;-88
2021/06/29 11:37:24;;;;;;;1.83;1.73;;;28.10;29.80;;;;;;5067916;28;20200;-89
2021/06/29 11:39:58;;;;;;;1.63;1.50;;;28.00;29.60;;;;;;5065488;28;20236;-89
2021/06/29 11:42:28;;;;;;;1.60;1.50;;;28.10;30.60;;;;;;5070581;28;20204;-87
2021/06/29 11:45:03;;;;;;;1.70;1.60;;;28.10;30.40;;;;;;5046186;28;20316;-89
2021/06/29 11:47:40;;;;;;;1.55;1.45;;;28.10;29.80;;;;;;5059757;28;20194;-90
2021/06/29 11:50:25;;;;;;;1.52;1.40;;;28.30;28.60;;;;;;5062662;28;20229;-90
2021/06/29 11:55:35;;;;;;;1.63;1.52;;;27.20;33.00;;;;;;5061197;28;20213;-89
2021/06/29 11:58:02;;;;;;;2.08;1.60;;;27.40;33.40;;;;;;5034148;28;20241;-89
2021/06/29 12:00:35;;;;;;;2.47;1.63;;;27.50;31.00;;;;;;5049906;28;20229;-89
2021/06/29 12:03:06;;;;;;;3.03;1.70;;;27.50;30.50;;;;;;5063870;28;20719;-87
2021/06/29 12:05:35;;;;;;;2.35;1.48;;;27.70;35.10;;;;;;5054209;28;20261;-87
2021/06/29 12:08:08;;;;;;;1.92;1.60;;;27.80;30.90;;;;;;5065481;28;20285;-87
2021/06/29 12:10:36;;;;;;;2.38;1.52;;;27.80;30.60;;;;;;5059069;28;20717;-88
2021/06/29 12:13:06;;;;;;;1.95;1.55;;;27.80;31.30;;;;;;5055402;28;20212;-87
2021/06/29 12:15:35;;;;;;;2.03;1.58;;;27.60;31.40;;;;;;5060511;28;20776;-87
2021/06/29 12:18:05;;;;;;;1.70;1.60;;;27.40;32.40;;;;;;5059923;28;20209;-87
2021/06/29 12:20:34;;;;;;;2.03;1.70;;;27.10;32.90;;;;;;5053997;28;20303;-87
2021/06/29 12:23:02;;;;;;;2.78;1.90;;;26.90;34.50;;;;;;5064912;28;20548;-87
2021/06/29 12:25:33;;;;;;;1.77;1.67;;;27.10;34.00;;;;;;5056693;28;20229;-88
2021/06/29 12:28:01;;;;;;;1.85;1.75;;;27.30;36.80;;;;;;5051977;28;20579;-88
2021/06/29 12:30:34;;;;;;;2.95;1.80;;;27.20;33.20;;;;;;5063466;28;20273;-88
2021/06/29 12:33:13;;;;;;;2.15;1.80;;;27.30;35.20;;;;;;5057752;28;20207;-87
2021/06/29 12:35:41;;;;;;;2.20;1.60;;;27.40;33.20;;;;;;5061171;28;20224;-87
2021/06/29 12:38:10;;;;;;;2.13;1.85;;;27.60;33.20;;;;;;5048803;28;20202;-88
2021/06/29 12:40:39;;;;;;;2.00;1.90;;;27.60;32.80;;;;;;5053550;28;20221;-87
2021/06/29 12:43:24;;;;;;;4.13;1.90;;;27.80;31.90;;;;;;5069600;28;20205;-88
2021/06/29 12:45:52;;;;;;;2.00;1.85;;;27.70;32.20;;;;;;5052605;28;20605;-88
2021/06/29 12:48:23;;;;;;;2.67;2.03;;;27.70;32.30;;;;;;5052490;28;20195;-87
2021/06/29 12:50:59;;;;;;;2.75;1.98;;;27.50;34.20;;;;;;5056419;28;20711;-87
2021/06/29 12:53:26;;;;;;;1.85;1.60;;;27.60;32.70;;;;;;5063244;28;20259;-87
2021/06/29 12:56:06;;;;;;;2.60;1.92;;;27.40;35.10;;;;;;5057828;28;20226;-87
2021/06/29 12:58:33;;;;;;;1.88;1.70;;;27.40;34.50;;;;;;5050843;28;20253;-88
2021/06/29 13:01:00;;;;;;;1.83;1.73;;;27.30;35.50;;;;;;5046972;28;20232;-89
2021/06/29 13:03:31;;;;;;;2.00;1.90;;;27.20;34.30;;;;;;5057609;28;20288;-88
2021/06/29 13:06:12;;;;;;;6.20;3.65;;;27.30;33.50;;;;;;5062002;28;20309;-88
2021/06/29 13:08:38;;;;;;;3.78;2.10;;;27.40;34.20;;;;;;5057174;28;20202;-88
2021/06/29 13:11:14;;;;;;;1.90;1.80;;;27.20;35.30;;;;;;5058744;28;20655;-88
2021/06/29 13:13:42;;;;;;;3.88;1.90;;;27.00;35.10;;;;;;5060527;28;20205;-88
2021/06/29 13:16:20;;;;;;;1.95;1.73;;;26.80;35.60;;;;;;5056691;28;20222;-89
2021/06/29 13:18:47;;;;;;;2.30;2.10;;;26.60;37.20;;;;;;5053858;28;20552;-89
2021/06/29 13:21:22;;;;;;;2.28;1.80;;;26.60;37.20;;;;;;5060620;28;20225;-89
2021/06/29 13:24:06;;;;;;;4.00;2.17;;;26.90;36.60;;;;;;5049175;28;20206;-89
2021/06/29 13:26:51;;;;;;;4.65;2.00;;;27.00;37.00;;;;;;5058707;28;20205;-89
2021/06/29 13:29:21;;;;;;;3.38;1.75;;;26.90;36.30;;;;;;5061809;28;20651;-89
2021/06/29 13:31:55;;;;;;;2.13;2.03;;;26.90;35.60;;;;;;5058697;28;20229;-90
2021/06/29 13:34:25;;;;;;;2.05;1.85;;;26.70;37.40;;;;;;5051535;28;20298;-89
2021/06/29 13:36:52;;;;;;;2.10;1.90;;;26.00;39.80;;;;;;5058289;28;20202;-91
2021/06/29 13:39:32;;;;;;;5.07;1.90;;;25.70;39.80;;;;;;5056194;28;20225;-91
2021/06/29 13:47:47;;;;;;;3.95;1.90;;;25.80;39.30;;;;;;5049405;28;20205;-90
2021/06/29 13:50:15;;;;;;;2.17;2.05;;;26.00;39.30;;;;;;5044819;28;20222;-89
2021/06/29 13:52:54;;;;;;;4.05;2.20;;;26.00;39.40;;;;;;5059538;28;20200;-89
2021/06/29 13:55:21;;;;;;;2.13;2.00;;;25.90;39.40;;;;;;5044947;28;20240;-89
2021/06/29 13:57:50;;;;;;;2.88;2.00;;;25.70;39.90;;;;;;5054747;28;20642;-89